Terminal Aerodrome Forecast
Issued by NWS

Home | Current Version | Previous Version | Text Only | Print | Product List | Glossary On
Versions: 1 2 3 4 5 6 7 8 9 10 11 12 13 14 15 16 17 18 19 20 21 22 23 24
000
FTUS43 KGRB 230520
TAFATW
TAF
KATW 230520Z 2306/2406 02016G24KT P6SM OVC005
      TEMPO 2306/2310 5SM -FZDZSN BR OVC006
     FM231000 36016G24KT P6SM OVC009
     FM231200 36016G25KT P6SM -SN OVC020
     FM231900 34014G20KT P6SM BKN020
     FM232100 34013KT P6SM SCT040 SCT070
     FM240000 33008KT P6SM SCT080=

USA.gov is the U.S. government's official web portal to all federal, state and local government web resources and services.